Time;durP1;ratioP1;P1;durP2;ratioP2;P2;SDS_P1;SDS_P2;PMS_P1;PMS_P2;Temp;Humidity;BMP_temperature;BMP_pressure;BME280_temperature;BME280_humidity;BME280_pressure;Samples;Min_cycle;Max_cycle;Signal;HPM_P1;HPM_P2
2022/06/18 00:00:21;;;;;;;8.43;7.63;;;20.30;99.90;;;;;;4969320;28;20149;-55
2022/06/18 00:02:47;;;;;;;10.82;8.40;;;20.20;99.90;;;;;;4952821;28;20057;-55
2022/06/18 00:05:17;;;;;;;9.05;6.20;;;20.20;99.90;;;;;;4970350;28;20289;-55
2022/06/18 00:07:48;;;;;;;12.30;8.35;;;20.20;99.90;;;;;;4978853;28;20086;-55
2022/06/18 00:10:17;;;;;;;14.57;8.30;;;20.20;99.90;;;;;;4982798;28;20038;-55
2022/06/18 00:15:31;;;;;;;9.40;8.23;;;20.10;99.90;;;;;;4974939;28;20237;-55
2022/06/18 00:17:58;;;;;;;9.88;8.75;;;20.00;99.90;;;;;;4988417;28;20074;-55
2022/06/18 00:20:27;;;;;;;9.38;7.53;;;19.90;99.90;;;;;;4980223;28;20133;-55
2022/06/18 00:22:57;;;;;;;10.20;8.73;;;20.00;99.90;;;;;;4959842;28;20047;-55
2022/06/18 00:25:26;;;;;;;11.43;8.75;;;19.90;99.90;;;;;;4973263;28;20049;-54
2022/06/18 00:27:52;;;;;;;10.27;9.27;;;19.90;99.90;;;;;;4990484;23;20824;-60
2022/06/18 00:30:23;;;;;;;11.88;9.50;;;19.90;99.90;;;;;;4943566;28;20569;-61
2022/06/18 00:32:49;;;;;;;9.32;8.23;;;20.00;99.90;;;;;;4949705;28;20097;-60
2022/06/18 00:35:15;;;;;;;12.85;10.57;;;20.00;99.90;;;;;;4957616;28;20043;-60
2022/06/18 00:37:43;;;;;;;12.90;9.10;;;19.90;99.90;;;;;;4953726;28;20043;-58
2022/06/18 00:40:23;;;;;;;11.73;8.63;;;19.90;99.90;;;;;;4954429;28;20390;-59
2022/06/18 00:42:50;;;;;;;12.85;8.70;;;20.00;99.90;;;;;;4955236;28;20054;-59
2022/06/18 00:45:21;;;;;;;11.55;9.82;;;19.90;99.90;;;;;;4947496;28;20039;-58
2022/06/18 00:48:01;;;;;;;12.20;8.05;;;19.90;99.90;;;;;;4948284;28;20069;-60
2022/06/18 00:50:43;;;;;;;13.02;9.70;;;19.90;99.90;;;;;;4953673;28;20129;-60
2022/06/18 00:53:14;;;;;;;9.57;8.07;;;19.90;99.90;;;;;;4952235;28;20038;-60
2022/06/18 00:55:55;;;;;;;12.00;8.45;;;19.90;99.90;;;;;;4949050;28;20043;-60
2022/06/18 00:58:40;;;;;;;13.40;8.20;;;19.90;99.90;;;;;;4950339;28;20049;-58
2022/06/18 01:01:21;;;;;;;13.15;8.68;;;19.90;99.90;;;;;;4952951;28;20045;-58
2022/06/18 01:03:47;;;;;;;11.43;8.00;;;19.90;99.90;;;;;;4961579;28;20051;-59
2022/06/18 01:06:23;;;;;;;10.35;8.38;;;19.90;99.90;;;;;;4959640;28;20401;-59
2022/06/18 01:08:57;;;;;;;13.98;8.15;;;19.90;99.90;;;;;;4953537;28;20050;-58
2022/06/18 01:11:27;;;;;;;12.25;8.20;;;19.80;99.90;;;;;;4953829;28;20486;-59
2022/06/18 01:13:53;;;;;;;9.15;7.78;;;19.80;99.90;;;;;;4946697;28;20084;-58
2022/06/18 01:16:21;;;;;;;10.93;8.25;;;19.80;99.90;;;;;;4951787;28;20043;-59
2022/06/18 01:18:48;;;;;;;9.75;8.38;;;19.80;99.90;;;;;;4956728;28;20063;-58
2022/06/18 01:21:26;;;;;;;9.88;8.10;;;19.70;99.90;;;;;;4954768;28;20066;-58
2022/06/18 01:24:01;;;;;;;9.48;8.43;;;19.70;99.90;;;;;;4952506;28;20148;-62
2022/06/18 01:26:27;;;;;;;12.65;9.48;;;19.70;99.90;;;;;;4959035;28;20062;-61
2022/06/18 01:28:54;;;;;;;15.20;9.98;;;19.70;99.90;;;;;;4957540;28;20039;-61
2022/06/18 01:31:19;;;;;;;12.98;9.85;;;19.70;99.90;;;;;;4964619;28;20045;-62
2022/06/18 01:33:46;;;;;;;15.25;10.27;;;19.70;99.90;;;;;;4948254;28;20039;-60
2022/06/18 01:36:13;;;;;;;13.98;9.77;;;19.60;99.90;;;;;;4953868;28;20074;-62
2022/06/18 01:38:43;;;;;;;14.05;10.85;;;19.60;99.90;;;;;;4945479;28;20050;-63
2022/06/18 01:41:50;;;;;;;13.38;10.02;;;19.60;99.90;;;;;;4958923;28;20186;-62
2022/06/18 01:44:25;;;;;;;16.15;9.57;;;19.60;99.90;;;;;;4958544;28;20049;-62
2022/06/18 01:46:54;;;;;;;14.02;10.90;;;19.50;99.90;;;;;;4959055;28;20042;-59
2022/06/18 01:49:27;;;;;;;13.82;9.98;;;19.50;99.90;;;;;;4956395;28;20117;-61
2022/06/18 01:51:57;;;;;;;16.55;10.32;;;19.40;99.90;;;;;;4960919;28;20034;-61
2022/06/18 01:54:34;;;;;;;18.13;11.73;;;19.30;99.90;;;;;;4959971;28;20490;-62
2022/06/18 01:57:05;;;;;;;15.35;11.68;;;19.30;99.90;;;;;;4949139;28;20142;-61
2022/06/18 01:59:43;;;;;;;19.85;13.15;;;19.20;99.90;;;;;;4955791;28;20043;-61
2022/06/18 02:02:09;;;;;;;13.38;10.15;;;19.10;99.90;;;;;;4939520;28;20167;-59
2022/06/18 02:04:35;;;;;;;19.50;13.48;;;19.00;99.90;;;;;;4945860;28;20466;-61
2022/06/18 02:07:04;;;;;;;17.45;11.95;;;19.00;99.90;;;;;;4961744;28;20545;-61
2022/06/18 02:09:45;;;;;;;14.35;12.40;;;18.90;99.90;;;;;;4952984;28;20055;-60
2022/06/18 02:12:16;;;;;;;22.48;13.43;;;18.90;99.90;;;;;;4929103;28;20058;-62
2022/06/18 02:14:47;;;;;;;18.70;13.70;;;18.80;99.90;;;;;;4947095;28;20070;-59
2022/06/18 02:17:17;;;;;;;15.38;13.00;;;18.70;99.90;;;;;;4948509;28;20036;-62
2022/06/18 02:20:01;;;;;;;17.45;14.65;;;18.60;99.90;;;;;;4952096;28;20047;-60
2022/06/18 02:22:35;;;;;;;18.00;13.85;;;18.60;99.90;;;;;;4957497;28;20051;-61
2022/06/18 02:25:01;;;;;;;15.70;13.60;;;18.50;99.90;;;;;;4938038;28;20082;-59
2022/06/18 02:27:26;;;;;;;21.05;14.50;;;18.50;99.90;;;;;;4962482;28;20133;-62
2022/06/18 02:29:54;;;;;;;20.77;15.68;;;18.40;99.90;;;;;;4949549;28;20277;-62
2022/06/18 02:32:49;;;;;;;16.73;13.95;;;18.40;99.90;;;;;;4943775;28;20133;-62
2022/06/18 02:35:15;;;;;;;16.90;13.60;;;18.30;99.90;;;;;;4952109;28;20414;-63
2022/06/18 02:37:42;;;;;;;24.30;16.65;;;18.30;99.90;;;;;;4947320;28;20047;-62
2022/06/18 02:40:26;;;;;;;20.23;14.95;;;18.20;99.90;;;;;;4953456;28;20051;-60
2022/06/18 02:42:55;;;;;;;19.88;15.25;;;18.20;99.90;;;;;;4945853;28;20040;-62
2022/06/18 02:45:24;;;;;;;22.90;16.02;;;18.20;99.90;;;;;;4957702;28;20074;-61
2022/06/18 02:47:53;;;;;;;23.92;15.52;;;18.20;99.90;;;;;;4947877;28;20043;-61
2022/06/18 02:50:21;;;;;;;22.88;14.95;;;18.20;99.90;;;;;;4949917;28;20513;-60
2022/06/18 02:52:50;;;;;;;22.77;15.02;;;18.20;99.90;;;;;;4956601;28;20058;-63
2022/06/18 02:55:28;;;;;;;23.27;15.38;;;18.10;99.90;;;;;;4954460;28;20220;-61
2022/06/18 02:58:18;;;;;;;24.08;16.80;;;18.10;99.90;;;;;;4950118;28;20035;-61
2022/06/18 03:00:53;;;;;;;27.80;15.70;;;18.00;99.90;;;;;;4945901;28;20055;-60
2022/06/18 03:03:21;;;;;;;28.70;17.80;;;18.00;99.90;;;;;;4953031;28;20062;-59
2022/06/18 03:05:48;;;;;;;23.08;17.90;;;17.90;99.90;;;;;;4946149;28;20043;-61
2022/06/18 03:08:14;;;;;;;27.23;18.55;;;17.90;99.90;;;;;;4948645;28;20050;-63
2022/06/18 03:13:28;;;;;;;26.02;19.10;;;17.70;99.90;;;;;;4942762;28;20043;-60
2022/06/18 03:15:55;;;;;;;28.27;17.60;;;17.60;99.90;;;;;;4951683;28;20085;-59
2022/06/18 03:18:24;;;;;;;32.20;19.60;;;17.60;99.90;;;;;;4943185;28;20043;-60
2022/06/18 03:21:15;;;;;;;33.78;21.38;;;17.60;99.90;;;;;;4945249;28;20046;-63
2022/06/18 03:23:42;;;;;;;25.73;19.20;;;17.60;99.90;;;;;;4946751;28;20058;-62
2022/06/18 03:26:08;;;;;;;25.20;18.60;;;17.50;99.90;;;;;;4945177;28;20050;-62
2022/06/18 03:28:33;;;;;;;29.27;19.05;;;17.50;99.90;;;;;;4937649;28;20039;-60
2022/06/18 03:30:59;;;;;;;27.90;19.80;;;17.50;99.90;;;;;;4942079;28;20035;-62
2022/06/18 03:33:25;;;;;;;36.28;20.42;;;17.50;99.90;;;;;;4925341;28;20543;-62
2022/06/18 03:35:52;;;;;;;33.50;21.48;;;17.50;99.90;;;;;;4943916;28;20124;-63
2022/06/18 03:38:19;;;;;;;28.02;19.38;;;17.50;99.90;;;;;;4949421;28;20039;-62
2022/06/18 03:40:45;;;;;;;33.58;21.40;;;17.50;99.90;;;;;;4935248;28;20806;-62
2022/06/18 03:43:12;;;;;;;31.13;21.80;;;17.40;99.90;;;;;;4938782;28;20078;-62
2022/06/18 03:45:43;;;;;;;39.55;23.25;;;17.50;99.90;;;;;;4942407;28;20047;-59
2022/06/18 03:48:34;;;;;;;34.05;23.00;;;17.50;99.90;;;;;;4945266;28;20434;-63
2022/06/18 03:51:00;;;;;;;32.55;20.83;;;17.50;99.90;;;;;;4946061;28;20114;-59
2022/06/18 03:53:25;;;;;;;28.00;21.05;;;17.50;99.90;;;;;;4940912;28;20085;-62
2022/06/18 03:55:51;;;;;;;22.58;17.95;;;17.40;99.90;;;;;;4938266;28;21861;-61
2022/06/18 03:58:18;;;;;;;27.90;19.52;;;17.40;99.90;;;;;;4946357;28;20101;-61
2022/06/18 04:00:44;;;;;;;32.90;22.27;;;17.40;99.90;;;;;;4934349;28;20043;-60
2022/06/18 04:03:10;;;;;;;33.88;20.65;;;17.50;99.90;;;;;;4948587;28;20066;-60
2022/06/18 04:05:40;;;;;;;34.30;21.48;;;17.50;99.90;;;;;;4945390;28;20401;-60
2022/06/18 04:08:06;;;;;;;26.35;19.73;;;17.50;99.90;;;;;;4942214;28;20050;-60
2022/06/18 04:10:34;;;;;;;30.13;21.92;;;17.50;99.90;;;;;;4945803;28;20561;-60
2022/06/18 04:13:00;;;;;;;34.33;22.05;;;17.50;99.90;;;;;;4943830;28;20092;-63
2022/06/18 04:15:26;;;;;;;35.92;22.13;;;17.50;99.90;;;;;;4955689;28;20046;-63
2022/06/18 04:17:52;;;;;;;35.58;22.85;;;17.50;99.90;;;;;;4936177;28;20493;-62
2022/06/18 04:20:22;;;;;;;33.15;23.88;;;17.40;99.90;;;;;;4914355;28;20077;-62
2022/06/18 04:22:49;;;;;;;29.08;21.60;;;17.40;99.90;;;;;;4938770;28;20043;-62
2022/06/18 04:25:14;;;;;;;31.40;22.58;;;17.40;99.90;;;;;;4933377;28;20082;-63
2022/06/18 04:27:40;;;;;;;31.25;21.60;;;17.40;99.90;;;;;;4932877;28;20063;-60
2022/06/18 04:30:07;;;;;;;30.27;21.40;;;17.40;99.90;;;;;;4929379;28;20039;-63
2022/06/18 04:32:35;;;;;;;27.75;18.75;;;17.50;99.90;;;;;;4933068;28;20491;-61
2022/06/18 04:35:02;;;;;;;26.45;18.95;;;17.40;99.90;;;;;;4927129;28;21328;-63
2022/06/18 04:37:28;;;;;;;25.55;18.67;;;17.40;99.90;;;;;;4930060;28;20046;-62
2022/06/18 04:39:53;;;;;;;27.63;15.93;;;17.50;99.90;;;;;;4931152;28;20053;-61
2022/06/18 04:42:19;;;;;;;29.35;19.33;;;17.50;99.90;;;;;;4928010;28;20130;-63
2022/06/18 04:44:45;;;;;;;27.60;18.23;;;17.50;99.90;;;;;;4930346;28;20039;-60
2022/06/18 04:47:10;;;;;;;29.25;18.25;;;17.60;99.90;;;;;;4933897;28;20055;-61
2022/06/18 04:49:36;;;;;;;25.02;15.73;;;17.60;99.90;;;;;;4935255;28;20089;-61
2022/06/18 04:52:03;;;;;;;24.98;17.08;;;17.70;99.90;;;;;;4930338;28;20109;-63
2022/06/18 04:54:28;;;;;;;31.95;17.98;;;17.70;99.90;;;;;;4930145;28;20073;-59
2022/06/18 04:56:54;;;;;;;29.17;16.73;;;17.70;99.90;;;;;;4936187;28;20047;-63
2022/06/18 04:59:20;;;;;;;25.77;17.65;;;17.70;99.90;;;;;;4928413;28;20514;-60
2022/06/18 05:01:56;;;;;;;25.83;15.52;;;17.80;99.90;;;;;;4930391;28;20196;-62
2022/06/18 05:04:22;;;;;;;24.65;16.42;;;17.80;99.90;;;;;;4936359;28;20049;-63
2022/06/18 05:06:48;;;;;;;25.60;14.57;;;17.80;99.90;;;;;;4933682;28;20481;-60
2022/06/18 05:09:13;;;;;;;22.45;16.00;;;17.90;99.90;;;;;;4934059;28;23547;-62
2022/06/18 05:11:39;;;;;;;26.13;14.48;;;17.90;99.90;;;;;;4936489;28;22214;-61
2022/06/18 05:14:05;;;;;;;30.02;16.08;;;18.00;99.90;;;;;;4939590;28;20078;-61
2022/06/18 05:16:30;;;;;;;23.65;13.82;;;18.00;99.90;;;;;;4941598;28;20723;-62
2022/06/18 05:18:56;;;;;;;23.13;15.65;;;18.10;99.90;;;;;;4962923;28;20093;-63
2022/06/18 05:21:22;;;;;;;21.85;15.32;;;18.00;99.90;;;;;;4945362;28;20035;-61
2022/06/18 05:23:48;;;;;;;26.00;14.20;;;18.00;99.90;;;;;;4937853;28;20065;-61
2022/06/18 05:26:14;;;;;;;20.45;13.88;;;18.00;99.90;;;;;;4944253;28;20126;-60
2022/06/18 05:28:40;;;;;;;21.52;13.25;;;18.10;99.90;;;;;;4945458;28;20047;-63
2022/06/18 05:31:06;;;;;;;25.65;13.23;;;18.20;99.90;;;;;;4914295;28;20039;-62
2022/06/18 05:33:31;;;;;;;24.25;13.43;;;18.20;99.90;;;;;;4951469;28;20035;-61
2022/06/18 05:35:57;;;;;;;17.13;10.57;;;18.30;99.90;;;;;;4943975;28;20050;-63
2022/06/18 05:38:24;;;;;;;21.40;11.38;;;18.30;99.90;;;;;;4940381;28;20616;-61
2022/06/18 05:40:50;;;;;;;20.60;10.57;;;18.40;99.90;;;;;;4946822;28;20043;-59
2022/06/18 05:43:16;;;;;;;14.68;9.75;;;18.40;99.90;;;;;;4941061;28;22474;-62
2022/06/18 05:45:42;;;;;;;19.38;10.10;;;18.50;99.90;;;;;;4946897;28;20039;-63
2022/06/18 05:48:09;;;;;;;21.92;10.43;;;18.60;99.90;;;;;;4947425;28;20049;-63
2022/06/18 05:50:35;;;;;;;15.07;9.70;;;18.60;99.90;;;;;;4939859;28;20042;-63
2022/06/18 05:53:01;;;;;;;16.60;9.93;;;18.70;99.90;;;;;;4940105;28;20774;-63
2022/06/18 05:55:27;;;;;;;15.80;10.27;;;18.70;99.90;;;;;;4949342;28;20042;-62
2022/06/18 05:57:55;;;;;;;19.35;10.23;;;18.80;99.90;;;;;;4947624;28;20169;-62
2022/06/18 06:00:31;;;;;;;16.67;10.25;;;18.90;99.90;;;;;;4938164;28;22265;-63
2022/06/18 06:02:57;;;;;;;18.73;9.32;;;18.90;99.90;;;;;;4943018;28;20131;-61
2022/06/18 06:05:23;;;;;;;13.02;9.18;;;19.00;99.90;;;;;;4942695;28;20050;-60
2022/06/18 06:07:49;;;;;;;13.10;8.82;;;19.00;99.90;;;;;;4965093;28;20043;-61
2022/06/18 06:13:10;;;;;;;17.58;9.25;;;19.20;99.90;;;;;;4947969;28;20042;-63
2022/06/18 06:15:38;;;;;;;15.00;10.20;;;19.20;99.90;;;;;;4948021;28;20504;-63
2022/06/18 06:18:05;;;;;;;21.13;9.63;;;19.20;99.90;;;;;;4948305;28;20592;-63
2022/06/18 06:20:34;;;;;;;20.42;9.13;;;19.30;99.90;;;;;;4946776;28;20078;-59
2022/06/18 06:23:00;;;;;;;16.42;9.20;;;19.30;99.90;;;;;;4940567;28;22445;-63
2022/06/18 06:25:26;;;;;;;19.50;10.60;;;19.30;99.90;;;;;;4939427;28;20145;-61
2022/06/18 06:30:23;;;;;;;17.70;9.00;;;19.40;99.90;;;;;;4973554;28;20111;-58
2022/06/18 06:32:49;;;;;;;15.43;9.02;;;19.50;99.90;;;;;;4987407;28;22698;-62
2022/06/18 06:35:15;;;;;;;16.00;8.95;;;19.60;99.90;;;;;;4982427;28;20042;-61
2022/06/18 06:37:41;;;;;;;14.85;8.65;;;19.60;99.90;;;;;;4993179;28;20061;-61
2022/06/18 06:40:08;;;;;;;13.20;6.60;;;19.70;99.90;;;;;;4987954;28;20034;-60
2022/06/18 06:42:46;;;;;;;10.82;6.03;;;19.80;99.90;;;;;;4998707;28;20042;-59
2022/06/18 06:45:25;;;;;;;12.98;6.30;;;19.80;99.90;;;;;;5003043;28;20562;-61
2022/06/18 06:47:52;;;;;;;16.35;5.82;;;20.00;99.90;;;;;;4999529;28;20050;-60
2022/06/18 06:50:19;;;;;;;13.65;5.55;;;20.00;99.90;;;;;;4991072;28;20042;-60
2022/06/18 06:52:45;;;;;;;8.10;4.88;;;20.10;99.90;;;;;;4991435;28;20042;-60
2022/06/18 06:58:24;;;;;;;8.15;4.13;;;20.10;99.90;;;;;;4980052;28;20051;-61
2022/06/18 07:00:56;;;;;;;7.97;3.83;;;20.10;99.90;;;;;;4988349;28;20042;-62
2022/06/18 07:03:28;;;;;;;13.07;3.67;;;20.10;99.90;;;;;;4987940;28;20085;-63
2022/06/18 07:05:56;;;;;;;8.85;3.22;;;20.10;99.90;;;;;;4978386;28;20038;-60
2022/06/18 07:08:22;;;;;;;10.40;4.47;;;20.20;99.90;;;;;;4981926;28;20404;-59
2022/06/18 07:10:50;;;;;;;5.30;2.80;;;20.20;99.90;;;;;;4985704;28;20050;-58
2022/06/18 07:13:17;;;;;;;6.82;2.70;;;20.30;99.90;;;;;;4981776;28;20050;-59
2022/06/18 07:15:47;;;;;;;7.22;2.92;;;20.40;99.90;;;;;;4990684;28;20069;-64
2022/06/18 07:18:18;;;;;;;3.95;1.90;;;20.60;99.90;;;;;;4985400;28;21423;-62
2022/06/18 07:20:44;;;;;;;6.63;1.90;;;20.70;99.90;;;;;;4997385;28;20038;-61
2022/06/18 07:23:11;;;;;;;4.53;1.77;;;20.80;99.90;;;;;;4983773;28;20304;-61
2022/06/18 07:25:37;;;;;;;5.28;2.67;;;20.90;99.90;;;;;;4982412;28;20042;-61
2022/06/18 07:28:03;;;;;;;3.80;1.50;;;20.90;99.90;;;;;;4975943;28;20124;-63
2022/06/18 07:30:29;;;;;;;3.30;1.50;;;21.00;99.90;;;;;;4978425;28;20042;-62
2022/06/18 07:32:57;;;;;;;2.65;1.55;;;21.10;99.90;;;;;;4968997;28;20489;-61
2022/06/18 07:35:26;;;;;;;2.88;1.42;;;21.00;99.90;;;;;;4976837;28;20041;-61
2022/06/18 07:37:53;;;;;;;3.92;1.40;;;21.00;99.90;;;;;;4977817;28;20046;-61
2022/06/18 07:40:20;;;;;;;2.10;1.00;;;21.00;99.90;;;;;;4976261;28;20069;-63
2022/06/18 07:42:48;;;;;;;3.53;1.40;;;21.00;99.90;;;;;;4965865;28;20063;-62
2022/06/18 07:45:20;;;;;;;4.13;1.70;;;21.00;99.90;;;;;;4975098;28;20045;-60
2022/06/18 07:47:47;;;;;;;3.28;1.67;;;21.10;99.90;;;;;;4972240;28;20041;-60
2022/06/18 07:50:14;;;;;;;6.15;2.00;;;21.20;99.90;;;;;;4979987;28;20033;-60
2022/06/18 07:52:40;;;;;;;2.97;2.10;;;21.20;99.90;;;;;;4997455;28;20480;-60
2022/06/18 07:55:07;;;;;;;4.70;2.50;;;21.20;99.90;;;;;;4992001;28;20059;-64
2022/06/18 07:57:33;;;;;;;5.05;2.42;;;21.30;99.90;;;;;;4981556;28;20044;-60
2022/06/18 07:59:58;;;;;;;3.88;2.25;;;21.40;99.90;;;;;;4980038;28;20049;-61
2022/06/18 08:02:24;;;;;;;6.18;2.53;;;21.50;99.90;;;;;;4993371;28;20049;-61
2022/06/18 08:04:50;;;;;;;6.80;2.22;;;21.50;99.90;;;;;;4979497;28;20033;-61
2022/06/18 08:07:16;;;;;;;6.18;2.60;;;21.60;99.90;;;;;;4977408;28;20378;-60
2022/06/18 08:09:41;;;;;;;5.82;2.15;;;21.50;99.90;;;;;;4982432;28;20046;-62
2022/06/18 08:12:07;;;;;;;3.03;1.70;;;21.40;99.90;;;;;;4975838;28;20101;-59
2022/06/18 08:14:33;;;;;;;4.93;1.98;;;21.40;99.90;;;;;;4991765;28;20038;-59
2022/06/18 08:16:59;;;;;;;5.03;2.22;;;21.40;99.90;;;;;;4976949;28;20060;-59
2022/06/18 08:19:25;;;;;;;4.75;1.90;;;21.60;99.90;;;;;;4976789;28;20042;-59
2022/06/18 08:21:52;;;;;;;4.28;2.45;;;21.70;99.90;;;;;;4979184;28;20515;-61
2022/06/18 08:24:21;;;;;;;3.67;2.10;;;21.70;99.90;;;;;;4977788;28;20045;-61
2022/06/18 08:26:50;;;;;;;6.35;2.55;;;21.70;99.90;;;;;;4979009;28;20454;-60
2022/06/18 08:29:20;;;;;;;3.97;2.10;;;21.60;99.90;;;;;;4967568;28;20046;-60
2022/06/18 08:31:46;;;;;;;4.88;2.08;;;21.40;99.90;;;;;;4978421;28;20457;-60
2022/06/18 08:34:12;;;;;;;4.53;1.65;;;21.50;99.90;;;;;;4986143;28;20037;-60
2022/06/18 08:36:39;;;;;;;4.45;2.30;;;21.70;99.90;;;;;;4978594;28;20052;-59
2022/06/18 08:39:06;;;;;;;6.38;2.28;;;21.70;99.90;;;;;;4965758;28;20403;-62
2022/06/18 08:41:58;;;;;;;3.83;2.10;;;21.60;99.90;;;;;;4982238;28;20105;-59
2022/06/18 08:45:04;;;;;;;6.28;2.00;;;21.70;99.90;;;;;;4981782;28;20781;-62
2022/06/18 08:47:36;;;;;;;4.40;1.67;;;21.60;99.90;;;;;;4981507;28;20678;-59
2022/06/18 08:50:14;;;;;;;5.18;2.00;;;21.50;99.90;;;;;;4982873;28;20615;-60
2022/06/18 08:53:18;;;;;;;5.13;2.03;;;21.50;99.90;;;;;;4989419;28;20034;-62
2022/06/18 08:56:04;;;;;;;5.18;2.33;;;21.70;99.90;;;;;;4951720;28;20141;-59
2022/06/18 08:59:10;;;;;;;4.43;1.75;;;21.90;99.90;;;;;;4997133;28;20050;-59
2022/06/18 09:02:31;;;;;;;4.78;1.80;;;22.00;99.90;;;;;;4983595;28;20041;-61
2022/06/18 09:05:05;;;;;;;4.80;2.28;;;22.10;99.90;;;;;;4930643;28;20035;-62
2022/06/18 09:07:42;;;;;;;3.95;2.40;;;22.00;99.90;;;;;;4983418;28;20163;-59
2022/06/18 09:10:34;;;;;;;5.57;2.10;;;21.90;99.90;;;;;;4975439;28;20258;-60
2022/06/18 09:13:17;;;;;;;6.32;1.88;;;22.00;99.90;;;;;;4948840;28;20056;-59
2022/06/18 09:15:47;;;;;;;4.93;2.33;;;21.80;99.90;;;;;;4979266;28;20046;-60
2022/06/18 09:18:34;;;;;;;4.43;2.38;;;21.90;99.90;;;;;;4970853;28;20038;-59
2022/06/18 09:21:04;;;;;;;5.13;2.00;;;21.80;99.90;;;;;;4981989;28;20049;-61
2022/06/18 09:23:36;;;;;;;6.47;2.20;;;21.90;99.90;;;;;;4984879;28;20054;-59
2022/06/18 09:26:07;;;;;;;6.13;2.20;;;22.20;99.90;;;;;;4984552;28;20049;-57
2022/06/18 09:28:54;;;;;;;4.35;2.10;;;22.40;99.90;;;;;;4973758;28;20053;-61
2022/06/18 09:31:41;;;;;;;4.35;1.45;;;22.60;99.90;;;;;;4983317;28;20189;-59
2022/06/18 09:34:21;;;;;;;4.22;1.88;;;22.70;99.90;;;;;;4988364;28;20484;-59
2022/06/18 09:36:51;;;;;;;4.75;1.70;;;22.80;99.90;;;;;;4985059;28;20116;-58
2022/06/18 09:39:33;;;;;;;4.43;2.20;;;22.90;99.90;;;;;;4984088;28;20749;-59
2022/06/18 09:42:22;;;;;;;3.83;1.45;;;22.60;99.90;;;;;;4988684;28;20042;-58
2022/06/18 09:45:18;;;;;;;5.88;2.80;;;22.60;99.90;;;;;;4980041;28;20046;-57
2022/06/18 09:47:47;;;;;;;4.18;1.60;;;22.70;99.90;;;;;;4993691;28;20053;-62
2022/06/18 09:50:32;;;;;;;5.32;1.90;;;22.70;99.90;;;;;;4992667;28;20045;-59
2022/06/18 09:53:16;;;;;;;6.90;2.65;;;22.70;99.90;;;;;;4992866;28;20260;-59
2022/06/18 09:55:53;;;;;;;5.75;2.38;;;22.90;99.90;;;;;;5005667;28;20046;-62
2022/06/18 09:58:48;;;;;;;4.78;2.20;;;22.70;99.90;;;;;;4980869;28;20050;-59
2022/06/18 10:01:17;;;;;;;4.47;2.22;;;22.70;99.90;;;;;;4986857;28;20195;-61
2022/06/18 10:09:22;;;;;;;3.88;1.67;;;22.90;99.90;;;;;;4996023;28;20047;-59
2022/06/18 10:11:48;;;;;;;2.30;1.27;;;23.00;99.90;;;;;;4990826;28;20038;-61
2022/06/18 10:14:20;;;;;;;2.63;1.40;;;23.20;99.90;;;;;;4993390;28;20038;-59
2022/06/18 10:17:06;;;;;;;8.00;2.13;;;23.50;99.90;;;;;;4986488;28;20088;-58
2022/06/18 10:19:41;;;;;;;4.93;1.70;;;23.00;99.90;;;;;;4988938;28;20056;-60
2022/06/18 10:22:42;;;;;;;5.32;2.05;;;23.20;99.90;;;;;;4989244;28;20061;-60
2022/06/18 10:25:42;;;;;;;6.75;2.38;;;23.40;99.90;;;;;;4988208;28;20058;-59
2022/06/18 10:28:20;;;;;;;3.90;2.22;;;23.50;99.90;;;;;;4991677;28;22298;-58
2022/06/18 10:30:51;;;;;;;3.78;1.90;;;23.40;99.90;;;;;;4996065;28;20062;-59
2022/06/18 10:33:23;;;;;;;7.07;2.67;;;23.40;99.90;;;;;;4987807;28;20049;-59
2022/06/18 10:36:19;;;;;;;2.85;1.90;;;23.60;99.90;;;;;;4988987;28;20059;-59
2022/06/18 10:39:10;;;;;;;6.72;1.90;;;23.80;99.90;;;;;;4992915;28;20120;-60
2022/06/18 10:42:00;;;;;;;4.20;1.65;;;23.90;99.90;;;;;;4993102;28;20034;-59
2022/06/18 10:44:54;;;;;;;3.83;2.00;;;23.90;99.60;;;;;;5007701;28;20058;-59
2022/06/18 10:47:20;;;;;;;5.28;2.67;;;24.00;98.90;;;;;;4991971;28;20100;-59
2022/06/18 10:49:47;;;;;;;6.25;1.73;;;23.70;98.90;;;;;;4994806;28;20053;-62
2022/06/18 10:52:31;;;;;;;3.97;1.50;;;23.70;99.40;;;;;;4991755;28;20140;-59
2022/06/18 10:55:13;;;;;;;3.63;1.30;;;24.00;99.10;;;;;;5005442;28;20038;-59
2022/06/18 10:57:42;;;;;;;3.95;1.52;;;24.00;98.00;;;;;;4981669;28;20053;-62
2022/06/18 11:00:12;;;;;;;3.70;1.85;;;24.10;98.20;;;;;;4990360;28;20041;-60
2022/06/18 11:02:40;;;;;;;6.60;1.38;;;24.10;97.00;;;;;;4973715;28;21567;-60
2022/06/18 11:05:35;;;;;;;3.72;1.30;;;23.70;98.00;;;;;;5000029;28;20046;-59
2022/06/18 11:08:16;;;;;;;2.85;1.10;;;23.90;98.90;;;;;;4982650;28;20130;-59
2022/06/18 11:11:07;;;;;;;3.60;1.33;;;24.20;98.60;;;;;;4987295;28;20445;-59
2022/06/18 11:13:40;;;;;;;3.65;1.60;;;24.50;97.80;;;;;;4972835;28;20137;-60
2022/06/18 11:16:14;;;;;;;4.13;1.47;;;24.50;97.60;;;;;;4984520;28;20187;-58
2022/06/18 11:18:47;;;;;;;5.18;1.20;;;24.60;97.40;;;;;;4988200;28;20053;-60
2022/06/18 11:21:25;;;;;;;3.90;1.42;;;24.30;96.50;;;;;;4987606;28;20045;-62
2022/06/18 11:23:58;;;;;;;4.53;1.02;;;24.40;97.00;;;;;;4983369;28;20657;-60
2022/06/18 11:26:26;;;;;;;3.72;1.10;;;24.50;97.60;;;;;;4980655;28;20030;-60
2022/06/18 11:28:55;;;;;;;5.40;1.63;;;24.70;96.90;;;;;;4997740;28;20041;-58
2022/06/18 11:31:26;;;;;;;4.00;1.35;;;24.70;96.40;;;;;;4989961;28;20107;-62
2022/06/18 11:34:01;;;;;;;4.18;1.52;;;24.70;96.60;;;;;;5007349;28;20025;-60
2022/06/18 11:36:46;;;;;;;3.60;1.45;;;24.80;95.80;;;;;;4988507;28;20292;-60
2022/06/18 11:39:35;;;;;;;4.25;1.48;;;24.80;96.20;;;;;;4989919;28;20042;-61
2022/06/18 11:42:10;;;;;;;6.68;1.80;;;24.60;96.00;;;;;;4991544;28;20042;-60
2022/06/18 11:44:47;;;;;;;6.25;1.58;;;24.40;95.60;;;;;;4984987;28;20044;-60
2022/06/18 11:47:28;;;;;;;7.72;2.50;;;24.40;96.20;;;;;;4989418;28;20386;-62
2022/06/18 11:50:32;;;;;;;5.80;1.73;;;24.50;96.00;;;;;;4994460;28;20084;-59
2022/06/18 11:53:00;;;;;;;6.88;1.70;;;24.40;95.50;;;;;;4956605;28;20178;-60
2022/06/18 11:55:31;;;;;;;4.93;1.70;;;24.40;95.80;;;;;;4976678;28;20048;-60
2022/06/18 11:58:22;;;;;;;6.68;1.80;;;24.60;96.00;;;;;;4996679;28;20105;-60
2022/06/18 12:01:17;;;;;;;5.45;1.58;;;24.70;95.30;;;;;;4989505;28;20042;-62
2022/06/18 12:04:01;;;;;;;7.22;1.58;;;24.90;94.80;;;;;;4997732;28;20080;-60
2022/06/18 12:06:47;;;;;;;8.15;2.30;;;24.90;94.70;;;;;;4990644;28;20119;-60
2022/06/18 12:09:14;;;;;;;4.82;1.60;;;24.90;93.80;;;;;;4987086;28;20591;-60
2022/06/18 12:12:09;;;;;;;5.05;1.25;;;24.20;94.00;;;;;;4986642;28;20033;-60
2022/06/18 12:14:54;;;;;;;6.43;2.10;;;24.40;95.00;;;;;;4937434;28;20069;-61
2022/06/18 12:17:25;;;;;;;6.20;1.80;;;23.90;93.30;;;;;;4984965;28;20665;-59
2022/06/18 12:20:06;;;;;;;5.47;1.73;;;23.60;95.00;;;;;;4984333;28;20046;-63
2022/06/18 12:22:42;;;;;;;5.90;2.15;;;23.80;95.20;;;;;;4995804;28;20041;-61
2022/06/18 12:25:38;;;;;;;10.50;1.98;;;23.80;95.40;;;;;;4982916;28;20085;-61
2022/06/18 12:30:57;;;;;;;7.28;2.47;;;23.80;95.50;;;;;;4986301;28;20173;-56
2022/06/18 12:33:35;;;;;;;7.43;2.10;;;23.70;95.20;;;;;;5000975;28;20833;-59
2022/06/18 12:36:09;;;;;;;8.38;1.98;;;23.80;95.10;;;;;;5008286;28;20037;-57
2022/06/18 12:38:56;;;;;;;6.50;2.47;;;24.00;95.80;;;;;;5011184;28;20053;-58
2022/06/18 12:41:39;;;;;;;6.13;1.85;;;24.20;95.10;;;;;;5003975;28;20060;-57
2022/06/18 12:44:29;;;;;;;9.10;2.45;;;24.40;95.50;;;;;;4997390;28;20041;-59
2022/06/18 12:47:19;;;;;;;8.27;2.33;;;24.50;95.00;;;;;;5003974;28;20305;-56
2022/06/18 12:50:13;;;;;;;7.68;2.20;;;24.30;94.40;;;;;;5025980;28;20064;-58
2022/06/18 12:53:01;;;;;;;10.68;2.58;;;24.20;95.10;;;;;;5008123;28;20132;-55
2022/06/18 12:55:36;;;;;;;10.75;2.88;;;23.90;94.80;;;;;;5004657;28;20210;-57
2022/06/18 12:58:23;;;;;;;11.30;2.38;;;23.90;94.80;;;;;;5005620;28;20072;-59
2022/06/18 13:01:00;;;;;;;8.55;2.60;;;23.80;96.00;;;;;;5003401;28;20041;-60
2022/06/18 13:03:58;;;;;;;9.95;2.50;;;24.00;95.90;;;;;;5005410;28;20107;-55
2022/06/18 13:06:46;;;;;;;11.13;2.05;;;23.70;94.90;;;;;;4981246;28;20076;-59
2022/06/18 13:09:18;;;;;;;10.23;2.10;;;23.30;95.50;;;;;;4999988;28;20131;-57
2022/06/18 13:11:51;;;;;;;9.13;2.30;;;23.20;96.10;;;;;;5014140;28;20033;-55
2022/06/18 13:14:17;;;;;;;7.07;2.38;;;23.30;96.30;;;;;;5015342;28;20046;-58
2022/06/18 13:16:54;;;;;;;8.48;2.00;;;23.30;95.80;;;;;;5002540;28;20061;-57
2022/06/18 13:19:28;;;;;;;6.15;2.13;;;23.00;94.70;;;;;;4985918;28;20557;-55
2022/06/18 13:21:54;;;;;;;10.55;2.40;;;23.00;95.20;;;;;;5009687;28;20053;-57
2022/06/18 13:30:09;;;;;;;11.65;1.80;;;23.80;94.40;;;;;;5008516;28;20259;-58
2022/06/18 13:33:02;;;;;;;9.82;2.40;;;24.00;94.30;;;;;;5001693;28;20065;-57
2022/06/18 13:35:31;;;;;;;8.15;2.13;;;24.00;93.10;;;;;;5001590;28;22186;-57